Terminal Aerodrome Forecast
Issued by NWS

Home | Current Version | Previous Version | Text Only | Print | Product List | Glossary On
Versions: 1 2 3 4 5 6 7 8 9 10 11 12 13 14 15 16 17 18 19 20 21 22
662
FTUS43 KLSX 181734
TAFCPS
TAF
KCPS 181734Z 1818/1918 29018G33KT 6SM -SHRA SCT009 OVC012
      TEMPO 1819/1822 4SM -SHRA BR BKN009
     FM182200 32022G36KT P6SM -SHRA OVC020
     FM182300 32020G33KT P6SM VCSH BKN045
     FM190000 32019G25KT P6SM BKN080
     FM190100 32017G24KT P6SM SCT110
     FM191100 32009KT P6SM SKC=

USA.gov is the U.S. government's official web portal to all federal, state and local government web resources and services.